Annville, Pennsylvania
Current Conditions -  °F | °C
As of 4:58 PM on Sunday 23 Nov 2014 (Local Time) from KMUI Reporting Station
Broken Clouds Broken Clouds  
Wind Chill: 51°   Ceiling: 19000
Heat Index: 51°   Visibility: 10mi
Dew Point: 26°   Wind: 6mph
Humidity: 39%   Direction: 160°SSE
Pressure: 30.07"   Gusts: NA
Location:  40.33°N, 76.51°W
Report Text: KMUI 232158Z AUTO 16005KT 10SM BKN190 10/M03 A3007 RMK AO2 SLP189 T01031032 $
Loading
Personal Weather Stations






























Interactive Weather Map New forecast layout! Learn more

10-Day Weather Forecast

Advertisements
Track Severe Weather on mobile